sensor_id;sensor_type;location;lat;lon;timestamp;pressure;altitude;pressure_sealevel;temperature;humidity
45991;BME280;31721;41.740;-88.000;2023-01-01T00:01:07;98594.43;;;3.24;48.69
45991;BME280;31721;41.740;-88.000;2023-01-01T00:03:34;98600.00;;;3.29;48.64
45991;BME280;31721;41.740;-88.000;2023-01-01T00:06:05;98592.90;;;3.29;48.55
45991;BME280;31721;41.740;-88.000;2023-01-01T00:08:34;98593.56;;;3.26;48.70
45991;BME280;31721;41.740;-88.000;2023-01-01T00:11:03;98598.61;;;3.35;48.54
45991;BME280;31721;41.740;-88.000;2023-01-01T00:13:38;98592.26;;;3.35;48.74
45991;BME280;31721;41.740;-88.000;2023-01-01T00:16:07;98607.08;;;3.41;48.84
45991;BME280;31721;41.740;-88.000;2023-01-01T00:18:35;98612.29;;;3.41;48.76
45991;BME280;31721;41.740;-88.000;2023-01-01T00:21:04;98605.79;;;3.40;48.65
45991;BME280;31721;41.740;-88.000;2023-01-01T00:23:33;98603.38;;;3.34;48.87
45991;BME280;31721;41.740;-88.000;2023-01-01T00:26:07;98614.28;;;3.42;48.82
45991;BME280;31721;41.740;-88.000;2023-01-01T00:28:35;98615.89;;;3.29;48.74
45991;BME280;31721;41.740;-88.000;2023-01-01T00:31:06;98628.16;;;3.42;48.84
45991;BME280;31721;41.740;-88.000;2023-01-01T00:33:34;98635.09;;;3.49;48.70
45991;BME280;31721;41.740;-88.000;2023-01-01T00:36:06;98644.43;;;3.51;49.00
45991;BME280;31721;41.740;-88.000;2023-01-01T00:38:34;98656.92;;;3.55;48.90
45991;BME280;31721;41.740;-88.000;2023-01-01T00:41:02;98636.86;;;3.45;48.86
45991;BME280;31721;41.740;-88.000;2023-01-01T00:43:30;98626.69;;;3.48;49.08
45991;BME280;31721;41.740;-88.000;2023-01-01T00:45:58;98626.98;;;3.58;48.90
45991;BME280;31721;41.740;-88.000;2023-01-01T00:48:25;98612.67;;;3.58;49.01
45991;BME280;31721;41.740;-88.000;2023-01-01T00:50:54;98608.86;;;3.62;48.90
45991;BME280;31721;41.740;-88.000;2023-01-01T00:53:22;98593.51;;;3.48;48.77
45991;BME280;31721;41.740;-88.000;2023-01-01T00:55:50;98593.82;;;3.67;48.83
45991;BME280;31721;41.740;-88.000;2023-01-01T00:58:18;98596.63;;;3.59;48.58
45991;BME280;31721;41.740;-88.000;2023-01-01T01:00:46;98591.72;;;3.53;48.81
45991;BME280;31721;41.740;-88.000;2023-01-01T01:03:15;98607.21;;;3.50;48.89
45991;BME280;31721;41.740;-88.000;2023-01-01T01:05:43;98607.51;;;3.57;49.00
45991;BME280;31721;41.740;-88.000;2023-01-01T01:08:10;98597.35;;;3.58;49.03
45991;BME280;31721;41.740;-88.000;2023-01-01T01:10:38;98585.80;;;3.59;48.98
45991;BME280;31721;41.740;-88.000;2023-01-01T01:13:06;98601.12;;;3.62;49.02
45991;BME280;31721;41.740;-88.000;2023-01-01T01:15:34;98631.76;;;3.73;48.87
45991;BME280;31721;41.740;-88.000;2023-01-01T01:18:02;98627.99;;;3.65;48.92
45991;BME280;31721;41.740;-88.000;2023-01-01T01:20:30;98621.81;;;3.63;48.93
45991;BME280;31721;41.740;-88.000;2023-01-01T01:22:59;98621.15;;;3.49;48.85
45991;BME280;31721;41.740;-88.000;2023-01-01T01:25:26;98619.18;;;3.35;48.89
45991;BME280;31721;41.740;-88.000;2023-01-01T01:27:54;98619.72;;;3.44;49.33
45991;BME280;31721;41.740;-88.000;2023-01-01T01:30:22;98611.01;;;3.46;49.37
45991;BME280;31721;41.740;-88.000;2023-01-01T01:32:50;98592.07;;;3.40;49.39
45991;BME280;31721;41.740;-88.000;2023-01-01T01:35:17;98592.30;;;3.33;49.52
45991;BME280;31721;41.740;-88.000;2023-01-01T01:37:45;98591.87;;;3.39;49.55
45991;BME280;31721;41.740;-88.000;2023-01-01T01:40:13;98588.66;;;3.24;49.58
45991;BME280;31721;41.740;-88.000;2023-01-01T01:42:45;98587.21;;;3.28;49.55
45991;BME280;31721;41.740;-88.000;2023-01-01T01:45:14;98587.34;;;3.41;49.91
45991;BME280;31721;41.740;-88.000;2023-01-01T01:47:47;98584.89;;;3.39;49.89
45991;BME280;31721;41.740;-88.000;2023-01-01T01:50:21;98591.90;;;3.35;49.95
45991;BME280;31721;41.740;-88.000;2023-01-01T01:53:00;98609.95;;;3.07;50.29
45991;BME280;31721;41.740;-88.000;2023-01-01T01:55:31;98602.61;;;3.06;50.26
45991;BME280;31721;41.740;-88.000;2023-01-01T01:58:00;98602.22;;;3.06;50.45
45991;BME280;31721;41.740;-88.000;2023-01-01T02:00:28;98602.72;;;3.04;50.32
45991;BME280;31721;41.740;-88.000;2023-01-01T02:03:01;98602.49;;;3.11;50.59
45991;BME280;31721;41.740;-88.000;2023-01-01T02:05:31;98601.38;;;3.15;50.64
45991;BME280;31721;41.740;-88.000;2023-01-01T02:08:02;98595.67;;;3.16;51.01
45991;BME280;31721;41.740;-88.000;2023-01-01T02:10:30;98590.24;;;3.05;51.23
45991;BME280;31721;41.740;-88.000;2023-01-01T02:12:59;98589.11;;;3.12;51.23
45991;BME280;31721;41.740;-88.000;2023-01-01T02:15:32;98590.85;;;3.09;51.36
45991;BME280;31721;41.740;-88.000;2023-01-01T02:18:05;98583.80;;;3.15;51.39
45991;BME280;31721;41.740;-88.000;2023-01-01T02:20:41;98581.77;;;3.15;51.31
45991;BME280;31721;41.740;-88.000;2023-01-01T02:23:26;98576.56;;;3.19;51.56
45991;BME280;31721;41.740;-88.000;2023-01-01T02:26:16;98580.27;;;3.18;51.67
45991;BME280;31721;41.740;-88.000;2023-01-01T02:28:54;98575.86;;;3.15;51.71
45991;BME280;31721;41.740;-88.000;2023-01-01T02:31:28;98565.57;;;3.28;51.88
45991;BME280;31721;41.740;-88.000;2023-01-01T02:34:00;98556.98;;;3.27;52.06
45991;BME280;31721;41.740;-88.000;2023-01-01T02:36:32;98555.95;;;3.13;52.22
45991;BME280;31721;41.740;-88.000;2023-01-01T02:39:01;98553.13;;;3.25;52.56
45991;BME280;31721;41.740;-88.000;2023-01-01T02:41:35;98557.06;;;3.16;52.27
45991;BME280;31721;41.740;-88.000;2023-01-01T02:44:05;98565.76;;;3.08;52.40
45991;BME280;31721;41.740;-88.000;2023-01-01T02:46:35;98562.99;;;2.92;52.82
45991;BME280;31721;41.740;-88.000;2023-01-01T02:49:04;98554.38;;;2.90;52.87
45991;BME280;31721;41.740;-88.000;2023-01-01T02:51:41;98541.47;;;2.94;53.33
45991;BME280;31721;41.740;-88.000;2023-01-01T02:54:21;98525.00;;;3.09;53.13
45991;BME280;31721;41.740;-88.000;2023-01-01T02:56:57;98521.81;;;2.76;53.19
45991;BME280;31721;41.740;-88.000;2023-01-01T02:59:32;98518.30;;;2.93;53.57
45991;BME280;31721;41.740;-88.000;2023-01-01T03:02:13;98516.43;;;2.71;53.62
45991;BME280;31721;41.740;-88.000;2023-01-01T03:04:52;98523.93;;;2.46;54.29
45991;BME280;31721;41.740;-88.000;2023-01-01T03:07:29;98528.31;;;2.55;53.79
45991;BME280;31721;41.740;-88.000;2023-01-01T03:10:06;98535.20;;;2.77;54.08
45991;BME280;31721;41.740;-88.000;2023-01-01T03:12:41;98535.41;;;2.53;54.70
45991;BME280;31721;41.740;-88.000;2023-01-01T03:15:18;98542.60;;;2.80;54.08
45991;BME280;31721;41.740;-88.000;2023-01-01T03:17:52;98544.71;;;2.90;54.13
45991;BME280;31721;41.740;-88.000;2023-01-01T03:20:25;98548.20;;;2.93;53.78
45991;BME280;31721;41.740;-88.000;2023-01-01T03:22:57;98547.93;;;2.70;53.85
45991;BME280;31721;41.740;-88.000;2023-01-01T03:25:30;98553.18;;;3.05;54.29
45991;BME280;31721;41.740;-88.000;2023-01-01T03:28:03;98552.12;;;3.11;54.33
45991;BME280;31721;41.740;-88.000;2023-01-01T03:30:35;98554.46;;;3.11;54.34
45991;BME280;31721;41.740;-88.000;2023-01-01T03:33:10;98555.97;;;3.21;54.37
45991;BME280;31721;41.740;-88.000;2023-01-01T03:35:44;98569.26;;;3.25;54.30
45991;BME280;31721;41.740;-88.000;2023-01-01T03:38:15;98566.46;;;3.10;54.35
45991;BME280;31721;41.740;-88.000;2023-01-01T03:40:48;98570.54;;;3.15;54.63
45991;BME280;31721;41.740;-88.000;2023-01-01T03:43:21;98566.19;;;3.18;54.71
45991;BME280;31721;41.740;-88.000;2023-01-01T03:45:54;98579.54;;;3.26;54.63
45991;BME280;31721;41.740;-88.000;2023-01-01T03:48:23;98585.87;;;3.11;54.49
45991;BME280;31721;41.740;-88.000;2023-01-01T03:50:57;98582.78;;;3.19;54.75
45991;BME280;31721;41.740;-88.000;2023-01-01T03:53:36;98578.06;;;3.15;54.81
45991;BME280;31721;41.740;-88.000;2023-01-01T03:56:12;98570.91;;;3.26;54.87
45991;BME280;31721;41.740;-88.000;2023-01-01T03:58:51;98568.05;;;3.33;54.95
45991;BME280;31721;41.740;-88.000;2023-01-01T04:01:22;98555.01;;;3.36;54.95
45991;BME280;31721;41.740;-88.000;2023-01-01T04:03:53;98547.12;;;3.36;54.84
45991;BME280;31721;41.740;-88.000;2023-01-01T04:06:21;98555.59;;;3.42;54.86
45991;BME280;31721;41.740;-88.000;2023-01-01T04:08:52;98585.77;;;3.54;54.94
45991;BME280;31721;41.740;-88.000;2023-01-01T04:11:25;98580.10;;;3.61;54.69
45991;BME280;31721;41.740;-88.000;2023-01-01T04:13:54;98574.12;;;3.56;54.72
45991;BME280;31721;41.740;-88.000;2023-01-01T04:16:21;98565.34;;;3.61;54.67
45991;BME280;31721;41.740;-88.000;2023-01-01T04:18:50;98564.74;;;3.56;54.67
45991;BME280;31721;41.740;-88.000;2023-01-01T04:21:17;98567.86;;;3.62;54.76
45991;BME280;31721;41.740;-88.000;2023-01-01T04:23:45;98563.21;;;3.66;54.73
45991;BME280;31721;41.740;-88.000;2023-01-01T04:26:13;98562.45;;;3.68;54.79
45991;BME280;31721;41.740;-88.000;2023-01-01T04:28:42;98553.37;;;3.70;54.73
45991;BME280;31721;41.740;-88.000;2023-01-01T04:31:09;98551.53;;;3.74;54.86
45991;BME280;31721;41.740;-88.000;2023-01-01T04:33:38;98543.62;;;3.76;54.76
45991;BME280;31721;41.740;-88.000;2023-01-01T04:36:07;98540.04;;;3.83;54.92
45991;BME280;31721;41.740;-88.000;2023-01-01T04:38:36;98533.95;;;3.83;54.79
45991;BME280;31721;41.740;-88.000;2023-01-01T04:41:05;98526.83;;;3.87;54.73
45991;BME280;31721;41.740;-88.000;2023-01-01T04:43:32;98526.56;;;3.94;54.87
45991;BME280;31721;41.740;-88.000;2023-01-01T04:46:01;98526.10;;;3.88;54.74
45991;BME280;31721;41.740;-88.000;2023-01-01T04:48:34;98517.04;;;4.06;54.79
45991;BME280;31721;41.740;-88.000;2023-01-01T04:51:04;98517.11;;;3.90;54.64
45991;BME280;31721;41.740;-88.000;2023-01-01T04:53:33;98517.03;;;3.99;54.65
45991;BME280;31721;41.740;-88.000;2023-01-01T04:56:03;98536.62;;;4.11;54.63
45991;BME280;31721;41.740;-88.000;2023-01-01T04:58:31;98546.29;;;3.91;54.67
45991;BME280;31721;41.740;-88.000;2023-01-01T05:01:00;98555.88;;;3.71;54.39
45991;BME280;31721;41.740;-88.000;2023-01-01T05:03:28;98559.82;;;3.18;55.84
45991;BME280;31721;41.740;-88.000;2023-01-01T05:06:00;98557.95;;;3.30;55.60
45991;BME280;31721;41.740;-88.000;2023-01-01T05:08:29;98564.22;;;3.31;55.51
45991;BME280;31721;41.740;-88.000;2023-01-01T05:10:59;98561.77;;;3.38;55.78
45991;BME280;31721;41.740;-88.000;2023-01-01T05:13:27;98559.92;;;3.40;55.77
45991;BME280;31721;41.740;-88.000;2023-01-01T05:15:55;98546.83;;;3.54;55.90
45991;BME280;31721;41.740;-88.000;2023-01-01T05:18:23;98538.00;;;3.60;55.80
45991;BME280;31721;41.740;-88.000;2023-01-01T05:20:51;98535.98;;;3.60;55.75
45991;BME280;31721;41.740;-88.000;2023-01-01T05:23:19;98537.17;;;3.74;55.81
45991;BME280;31721;41.740;-88.000;2023-01-01T05:25:48;98529.53;;;3.90;55.67
45991;BME280;31721;41.740;-88.000;2023-01-01T05:28:15;98520.81;;;3.78;55.54
45991;BME280;31721;41.740;-88.000;2023-01-01T05:30:43;98516.50;;;3.82;55.54
45991;BME280;31721;41.740;-88.000;2023-01-01T05:33:11;98511.09;;;3.86;55.39
45991;BME280;31721;41.740;-88.000;2023-01-01T05:35:39;98496.51;;;3.85;55.19
45991;BME280;31721;41.740;-88.000;2023-01-01T05:38:07;98483.62;;;3.83;55.16
45991;BME280;31721;41.740;-88.000;2023-01-01T05:40:36;98480.37;;;3.87;55.38
45991;BME280;31721;41.740;-88.000;2023-01-01T05:43:05;98480.63;;;3.90;55.31
45991;BME280;31721;41.740;-88.000;2023-01-01T05:45:33;98474.87;;;3.99;55.10
45991;BME280;31721;41.740;-88.000;2023-01-01T05:48:00;98461.65;;;3.93;55.05
45991;BME280;31721;41.740;-88.000;2023-01-01T05:50:29;98466.51;;;3.90;55.04
45991;BME280;31721;41.740;-88.000;2023-01-01T05:52:57;98445.85;;;3.87;55.10
45991;BME280;31721;41.740;-88.000;2023-01-01T05:55:25;98436.22;;;4.02;55.30
45991;BME280;31721;41.740;-88.000;2023-01-01T05:57:52;98434.88;;;3.81;55.16
45991;BME280;31721;41.740;-88.000;2023-01-01T06:00:20;98434.26;;;3.81;55.35
45991;BME280;31721;41.740;-88.000;2023-01-01T06:02:48;98434.04;;;3.50;55.52
45991;BME280;31721;41.740;-88.000;2023-01-01T06:05:16;98433.89;;;3.64;55.70
45991;BME280;31721;41.740;-88.000;2023-01-01T06:07:43;98435.39;;;3.61;55.77
45991;BME280;31721;41.740;-88.000;2023-01-01T06:10:11;98436.48;;;3.64;56.01
45991;BME280;31721;41.740;-88.000;2023-01-01T06:12:39;98427.18;;;3.60;55.88
45991;BME280;31721;41.740;-88.000;2023-01-01T06:15:08;98416.00;;;3.66;55.94
45991;BME280;31721;41.740;-88.000;2023-01-01T06:17:36;98413.95;;;3.72;56.20
45991;BME280;31721;41.740;-88.000;2023-01-01T06:20:05;98411.03;;;3.74;56.12
45991;BME280;31721;41.740;-88.000;2023-01-01T06:22:35;98419.47;;;3.89;56.24
45991;BME280;31721;41.740;-88.000;2023-01-01T06:25:04;98431.50;;;3.80;56.06
45991;BME280;31721;41.740;-88.000;2023-01-01T06:27:34;98439.91;;;3.83;56.13
45991;BME280;31721;41.740;-88.000;2023-01-01T06:30:02;98442.26;;;3.83;56.29
45991;BME280;31721;41.740;-88.000;2023-01-01T06:32:30;98435.93;;;3.89;56.35
45991;BME280;31721;41.740;-88.000;2023-01-01T06:34:58;98439.77;;;3.94;56.38
45991;BME280;31721;41.740;-88.000;2023-01-01T06:37:27;98440.39;;;4.00;56.32
45991;BME280;31721;41.740;-88.000;2023-01-01T06:39:55;98440.62;;;4.07;56.47
45991;BME280;31721;41.740;-88.000;2023-01-01T06:42:23;98447.16;;;4.10;56.33
45991;BME280;31721;41.740;-88.000;2023-01-01T06:44:51;98447.08;;;4.16;56.40
45991;BME280;31721;41.740;-88.000;2023-01-01T06:47:18;98450.69;;;4.18;56.42
45991;BME280;31721;41.740;-88.000;2023-01-01T06:49:46;98456.70;;;4.26;56.36
45991;BME280;31721;41.740;-88.000;2023-01-01T06:52:14;98454.81;;;4.27;56.31
45991;BME280;31721;41.740;-88.000;2023-01-01T06:54:41;98449.41;;;4.24;56.27
45991;BME280;31721;41.740;-88.000;2023-01-01T06:57:09;98444.67;;;4.33;56.24
45991;BME280;31721;41.740;-88.000;2023-01-01T06:59:37;98448.50;;;4.27;56.34
45991;BME280;31721;41.740;-88.000;2023-01-01T07:02:06;98458.18;;;4.42;56.43
45991;BME280;31721;41.740;-88.000;2023-01-01T07:04:36;98454.60;;;4.26;56.30
45991;BME280;31721;41.740;-88.000;2023-01-01T07:07:04;98437.20;;;4.03;56.14
45991;BME280;31721;41.740;-88.000;2023-01-01T07:09:32;98419.07;;;4.32;56.71
45991;BME280;31721;41.740;-88.000;2023-01-01T07:12:00;98400.94;;;4.30;56.83
45991;BME280;31721;41.740;-88.000;2023-01-01T07:14:27;98401.68;;;4.42;56.90
45991;BME280;31721;41.740;-88.000;2023-01-01T07:16:56;98408.82;;;4.14;56.70
45991;BME280;31721;41.740;-88.000;2023-01-01T07:19:23;98425.84;;;4.39;57.03
45991;BME280;31721;41.740;-88.000;2023-01-01T07:21:52;98435.91;;;4.23;57.14
45991;BME280;31721;41.740;-88.000;2023-01-01T07:24:21;98450.79;;;4.20;56.85
45991;BME280;31721;41.740;-88.000;2023-01-01T07:26:48;98455.66;;;4.07;56.79
45991;BME280;31721;41.740;-88.000;2023-01-01T07:29:16;98458.31;;;4.00;58.16
45991;BME280;31721;41.740;-88.000;2023-01-01T07:31:44;98467.21;;;4.14;58.06
45991;BME280;31721;41.740;-88.000;2023-01-01T07:34:15;98463.54;;;3.59;59.73
45991;BME280;31721;41.740;-88.000;2023-01-01T07:36:43;98457.88;;;3.74;58.79
45991;BME280;31721;41.740;-88.000;2023-01-01T07:39:11;98460.01;;;3.51;60.14
45991;BME280;31721;41.740;-88.000;2023-01-01T07:41:39;98458.71;;;3.67;58.74
45991;BME280;31721;41.740;-88.000;2023-01-01T07:44:06;98458.94;;;3.47;60.93
45991;BME280;31721;41.740;-88.000;2023-01-01T07:46:35;98455.05;;;3.35;60.17
45991;BME280;31721;41.740;-88.000;2023-01-01T07:49:03;98451.18;;;3.47;60.59
45991;BME280;31721;41.740;-88.000;2023-01-01T07:51:31;98457.09;;;3.58;60.78
45991;BME280;31721;41.740;-88.000;2023-01-01T07:53:59;98448.84;;;3.41;60.73
45991;BME280;31721;41.740;-88.000;2023-01-01T07:56:27;98446.31;;;3.68;61.35
45991;BME280;31721;41.740;-88.000;2023-01-01T07:58:55;98449.27;;;3.90;59.92
45991;BME280;31721;41.740;-88.000;2023-01-01T08:01:22;98443.87;;;3.21;63.41
45991;BME280;31721;41.740;-88.000;2023-01-01T08:03:51;98439.78;;;3.32;62.28
45991;BME280;31721;41.740;-88.000;2023-01-01T08:06:19;98436.97;;;3.35;62.42
45991;BME280;31721;41.740;-88.000;2023-01-01T08:08:47;98446.32;;;3.41;63.05
45991;BME280;31721;41.740;-88.000;2023-01-01T08:11:15;98445.90;;;3.44;60.97
45991;BME280;31721;41.740;-88.000;2023-01-01T08:13:42;98444.85;;;3.08;63.86
45991;BME280;31721;41.740;-88.000;2023-01-01T08:16:10;98440.78;;;3.32;62.00
45991;BME280;31721;41.740;-88.000;2023-01-01T08:18:38;98438.86;;;3.35;61.52
45991;BME280;31721;41.740;-88.000;2023-01-01T08:21:06;98444.30;;;3.32;62.72
45991;BME280;31721;41.740;-88.000;2023-01-01T08:23:33;98457.16;;;3.76;61.24
45991;BME280;31721;41.740;-88.000;2023-01-01T08:26:01;98458.93;;;3.74;62.47
45991;BME280;31721;41.740;-88.000;2023-01-01T08:28:30;98458.00;;;3.83;63.69
45991;BME280;31721;41.740;-88.000;2023-01-01T08:30:58;98465.32;;;4.03;62.69
45991;BME280;31721;41.740;-88.000;2023-01-01T08:33:26;98464.74;;;3.76;63.13
45991;BME280;31721;41.740;-88.000;2023-01-01T08:35:53;98466.90;;;4.08;62.18
45991;BME280;31721;41.740;-88.000;2023-01-01T08:38:21;98463.76;;;4.07;61.63
45991;BME280;31721;41.740;-88.000;2023-01-01T08:40:49;98461.78;;;3.87;61.66
45991;BME280;31721;41.740;-88.000;2023-01-01T08:43:17;98456.90;;;3.99;62.19
45991;BME280;31721;41.740;-88.000;2023-01-01T08:45:45;98452.84;;;4.12;61.86
45991;BME280;31721;41.740;-88.000;2023-01-01T08:48:13;98454.57;;;4.04;62.02
45991;BME280;31721;41.740;-88.000;2023-01-01T08:50:40;98447.98;;;4.26;62.14
45991;BME280;31721;41.740;-88.000;2023-01-01T08:53:08;98449.67;;;4.16;61.94
45991;BME280;31721;41.740;-88.000;2023-01-01T08:55:35;98445.07;;;4.11;61.78
45991;BME280;31721;41.740;-88.000;2023-01-01T08:58:05;98439.52;;;4.26;62.05
45991;BME280;31721;41.740;-88.000;2023-01-01T09:00:33;98435.54;;;4.23;61.74
45991;BME280;31721;41.740;-88.000;2023-01-01T09:03:01;98434.28;;;4.12;62.41
45991;BME280;31721;41.740;-88.000;2023-01-01T09:05:29;98436.83;;;4.31;61.72
45991;BME280;31721;41.740;-88.000;2023-01-01T09:07:57;98439.61;;;4.25;62.45
45991;BME280;31721;41.740;-88.000;2023-01-01T09:10:25;98442.53;;;4.41;62.44
45991;BME280;31721;41.740;-88.000;2023-01-01T09:12:53;98441.02;;;4.49;62.76
45991;BME280;31721;41.740;-88.000;2023-01-01T09:15:20;98439.91;;;4.36;62.39
45991;BME280;31721;41.740;-88.000;2023-01-01T09:17:48;98440.41;;;4.37;62.19
45991;BME280;31721;41.740;-88.000;2023-01-01T09:20:16;98439.65;;;4.29;62.46
45991;BME280;31721;41.740;-88.000;2023-01-01T09:22:43;98445.11;;;4.51;62.76
45991;BME280;31721;41.740;-88.000;2023-01-01T09:25:11;98444.59;;;4.58;62.77
45991;BME280;31721;41.740;-88.000;2023-01-01T09:27:39;98442.86;;;4.58;62.82
45991;BME280;31721;41.740;-88.000;2023-01-01T09:30:07;98444.82;;;4.72;62.76
45991;BME280;31721;41.740;-88.000;2023-01-01T09:32:35;98438.86;;;4.73;62.72
45991;BME280;31721;41.740;-88.000;2023-01-01T09:35:04;98436.09;;;4.73;62.84
45991;BME280;31721;41.740;-88.000;2023-01-01T09:37:31;98437.10;;;4.79;62.86
45991;BME280;31721;41.740;-88.000;2023-01-01T09:39:59;98432.67;;;4.75;62.63
45991;BME280;31721;41.740;-88.000;2023-01-01T09:42:33;98432.77;;;4.75;62.67
45991;BME280;31721;41.740;-88.000;2023-01-01T09:45:13;98428.58;;;4.82;62.45
45991;BME280;31721;41.740;-88.000;2023-01-01T09:47:45;98424.30;;;4.86;62.77
45991;BME280;31721;41.740;-88.000;2023-01-01T09:50:17;98425.01;;;4.84;62.72
45991;BME280;31721;41.740;-88.000;2023-01-01T09:52:51;98425.97;;;4.78;62.60
45991;BME280;31721;41.740;-88.000;2023-01-01T09:55:25;98425.75;;;4.78;62.81
45991;BME280;31721;41.740;-88.000;2023-01-01T09:57:54;98422.09;;;4.85;62.85
45991;BME280;31721;41.740;-88.000;2023-01-01T10:00:23;98424.08;;;5.01;63.02
45991;BME280;31721;41.740;-88.000;2023-01-01T10:03:29;98407.72;;;5.03;63.00
45991;BME280;31721;41.740;-88.000;2023-01-01T10:06:09;98417.76;;;5.05;62.76
45991;BME280;31721;41.740;-88.000;2023-01-01T10:08:51;98408.62;;;5.12;62.84
45991;BME280;31721;41.740;-88.000;2023-01-01T10:11:27;98403.97;;;5.03;62.74
45991;BME280;31721;41.740;-88.000;2023-01-01T10:13:58;98422.75;;;5.18;62.75
45991;BME280;31721;41.740;-88.000;2023-01-01T10:16:31;98421.09;;;5.08;62.93
45991;BME280;31721;41.740;-88.000;2023-01-01T10:19:06;98423.01;;;5.13;62.71
45991;BME280;31721;41.740;-88.000;2023-01-01T10:21:41;98412.71;;;5.15;63.00
45991;BME280;31721;41.740;-88.000;2023-01-01T10:24:24;98413.24;;;5.21;63.06
45991;BME280;31721;41.740;-88.000;2023-01-01T10:26:55;98404.48;;;5.22;63.21
45991;BME280;31721;41.740;-88.000;2023-01-01T10:29:33;98398.43;;;5.30;63.14
45991;BME280;31721;41.740;-88.000;2023-01-01T10:32:13;98401.93;;;5.33;62.98
45991;BME280;31721;41.740;-88.000;2023-01-01T10:34:43;98409.79;;;5.22;62.82
45991;BME280;31721;41.740;-88.000;2023-01-01T10:37:12;98410.06;;;5.31;63.01
45991;BME280;31721;41.740;-88.000;2023-01-01T10:39:41;98415.29;;;5.35;63.24
45991;BME280;31721;41.740;-88.000;2023-01-01T10:42:11;98428.71;;;5.28;63.30
45991;BME280;31721;41.740;-88.000;2023-01-01T10:44:40;98432.64;;;5.32;63.20
45991;BME280;31721;41.740;-88.000;2023-01-01T10:47:22;98437.17;;;5.34;63.31
45991;BME280;31721;41.740;-88.000;2023-01-01T10:49:56;98440.04;;;5.45;63.39
45991;BME280;31721;41.740;-88.000;2023-01-01T10:52:27;98447.21;;;5.43;63.47
45991;BME280;31721;41.740;-88.000;2023-01-01T10:54:56;98449.62;;;5.30;63.49
45991;BME280;31721;41.740;-88.000;2023-01-01T10:57:31;98454.61;;;5.27;63.37
45991;BME280;31721;41.740;-88.000;2023-01-01T11:00:32;98452.46;;;4.91;63.83
45991;BME280;31721;41.740;-88.000;2023-01-01T11:03:18;98449.93;;;5.01;63.47
45991;BME280;31721;41.740;-88.000;2023-01-01T11:06:04;98455.30;;;5.26;64.17
45991;BME280;31721;41.740;-88.000;2023-01-01T11:08:34;98461.82;;;5.29;64.02
45991;BME280;31721;41.740;-88.000;2023-01-01T11:11:04;98455.90;;;5.29;64.04
45991;BME280;31721;41.740;-88.000;2023-01-01T11:13:32;98457.05;;;5.32;64.49
45991;BME280;31721;41.740;-88.000;2023-01-01T11:16:00;98460.57;;;5.29;64.56
45991;BME280;31721;41.740;-88.000;2023-01-01T11:18:30;98456.18;;;5.40;64.27
45991;BME280;31721;41.740;-88.000;2023-01-01T11:20:59;98451.37;;;5.37;64.08
45991;BME280;31721;41.740;-88.000;2023-01-01T11:23:30;98454.65;;;5.50;64.43
45991;BME280;31721;41.740;-88.000;2023-01-01T11:26:03;98454.03;;;5.51;64.38
45991;BME280;31721;41.740;-88.000;2023-01-01T11:28:32;98456.61;;;5.49;64.30
45991;BME280;31721;41.740;-88.000;2023-01-01T11:31:04;98463.15;;;5.60;64.37
45991;BME280;31721;41.740;-88.000;2023-01-01T11:33:35;98460.75;;;5.70;64.32
45991;BME280;31721;41.740;-88.000;2023-01-01T11:36:06;98465.29;;;5.64;64.15
45991;BME280;31721;41.740;-88.000;2023-01-01T11:38:34;98463.78;;;5.63;64.69
45991;BME280;31721;41.740;-88.000;2023-01-01T11:41:04;98462.83;;;5.76;64.50
45991;BME280;31721;41.740;-88.000;2023-01-01T11:43:38;98462.96;;;5.82;64.37
45991;BME280;31721;41.740;-88.000;2023-01-01T11:46:09;98467.60;;;5.63;64.81
45991;BME280;31721;41.740;-88.000;2023-01-01T11:48:41;98470.25;;;5.83;64.62
45991;BME280;31721;41.740;-88.000;2023-01-01T11:51:27;98467.11;;;5.79;64.62
45991;BME280;31721;41.740;-88.000;2023-01-01T11:54:08;98465.14;;;5.90;64.72
45991;BME280;31721;41.740;-88.000;2023-01-01T11:56:37;98451.28;;;5.64;65.51
45991;BME280;31721;41.740;-88.000;2023-01-01T11:59:12;98454.80;;;5.75;65.01
45991;BME280;31721;41.740;-88.000;2023-01-01T12:01:44;98465.32;;;5.91;65.14
45991;BME280;31721;41.740;-88.000;2023-01-01T12:04:18;98467.33;;;6.19;64.96
45991;BME280;31721;41.740;-88.000;2023-01-01T12:06:50;98473.34;;;6.22;64.91
45991;BME280;31721;41.740;-88.000;2023-01-01T12:09:23;98484.70;;;6.52;64.38
45991;BME280;31721;41.740;-88.000;2023-01-01T12:12:00;98489.67;;;6.59;64.40
45991;BME280;31721;41.740;-88.000;2023-01-01T12:14:36;98495.43;;;6.81;64.18
45991;BME280;31721;41.740;-88.000;2023-01-01T12:17:13;98501.31;;;6.77;63.90
45991;BME280;31721;41.740;-88.000;2023-01-01T12:19:51;98494.99;;;6.79;63.70
45991;BME280;31721;41.740;-88.000;2023-01-01T12:22:23;98487.59;;;6.57;63.61
45991;BME280;31721;41.740;-88.000;2023-01-01T12:24:50;98497.14;;;6.51;63.56
45991;BME280;31721;41.740;-88.000;2023-01-01T12:27:27;98503.72;;;6.59;63.78
45991;BME280;31721;41.740;-88.000;2023-01-01T12:30:09;98502.49;;;6.51;63.92
45991;BME280;31721;41.740;-88.000;2023-01-01T12:32:55;98503.29;;;6.34;63.64
45991;BME280;31721;41.740;-88.000;2023-01-01T12:35:35;98520.86;;;6.40;64.00
45991;BME280;31721;41.740;-88.000;2023-01-01T12:38:16;98526.92;;;6.66;64.09
45991;BME280;31721;41.740;-88.000;2023-01-01T12:40:52;98524.33;;;6.44;64.44
45991;BME280;31721;41.740;-88.000;2023-01-01T12:43:36;98527.64;;;6.54;65.11
45991;BME280;31721;41.740;-88.000;2023-01-01T12:46:22;98532.53;;;6.53;65.23
45991;BME280;31721;41.740;-88.000;2023-01-01T12:49:04;98541.30;;;6.45;64.96
45991;BME280;31721;41.740;-88.000;2023-01-01T12:51:44;98541.10;;;6.37;64.72
45991;BME280;31721;41.740;-88.000;2023-01-01T12:54:42;98543.03;;;6.37;65.18
45991;BME280;31721;41.740;-88.000;2023-01-01T12:57:21;98549.48;;;6.54;65.43
45991;BME280;31721;41.740;-88.000;2023-01-01T12:59:52;98552.43;;;6.61;65.35
45991;BME280;31721;41.740;-88.000;2023-01-01T13:02:23;98556.69;;;6.61;65.47
45991;BME280;31721;41.740;-88.000;2023-01-01T13:04:55;98559.87;;;6.53;65.51
45991;BME280;31721;41.740;-88.000;2023-01-01T13:07:27;98563.67;;;6.37;65.58
45991;BME280;31721;41.740;-88.000;2023-01-01T13:10:05;98571.33;;;6.52;65.82